sensor_id;sensor_type;location;lat;lon;timestamp;P1;durP1;ratioP1;P2;durP2;ratioP2
14235;SDS011;7202;50.718;7.072;2023-05-10T00:00:41;0.70;;;0.60;;
14235;SDS011;7202;50.718;7.072;2023-05-10T00:03:09;1.40;;;0.73;;
14235;SDS011;7202;50.718;7.072;2023-05-10T00:05:38;4.68;;;0.80;;
14235;SDS011;7202;50.718;7.072;2023-05-10T00:08:07;4.53;;;0.85;;
14235;SDS011;7202;50.718;7.072;2023-05-10T00:10:37;3.15;;;1.00;;
14235;SDS011;7202;50.718;7.072;2023-05-10T00:13:07;2.22;;;0.80;;
14235;SDS011;7202;50.718;7.072;2023-05-10T00:15:35;0.95;;;0.70;;
14235;SDS011;7202;50.718;7.072;2023-05-10T00:18:04;3.05;;;0.82;;
14235;SDS011;7202;50.718;7.072;2023-05-10T00:20:32;0.60;;;0.60;;
14235;SDS011;7202;50.718;7.072;2023-05-10T00:23:01;0.93;;;0.82;;
14235;SDS011;7202;50.718;7.072;2023-05-10T00:25:30;7.63;;;1.00;;
14235;SDS011;7202;50.718;7.072;2023-05-10T00:28:00;0.80;;;0.68;;
14235;SDS011;7202;50.718;7.072;2023-05-10T00:30:29;2.28;;;0.80;;
14235;SDS011;7202;50.718;7.072;2023-05-10T00:32:58;1.00;;;0.90;;
14235;SDS011;7202;50.718;7.072;2023-05-10T00:35:27;2.03;;;1.08;;
14235;SDS011;7202;50.718;7.072;2023-05-10T00:37:55;3.65;;;1.33;;
14235;SDS011;7202;50.718;7.072;2023-05-10T00:40:24;1.35;;;0.80;;
14235;SDS011;7202;50.718;7.072;2023-05-10T00:42:57;1.98;;;0.95;;
14235;SDS011;7202;50.718;7.072;2023-05-10T00:45:28;3.85;;;0.90;;
14235;SDS011;7202;50.718;7.072;2023-05-10T00:47:57;2.58;;;0.95;;
14235;SDS011;7202;50.718;7.072;2023-05-10T00:50:27;5.40;;;1.02;;
14235;SDS011;7202;50.718;7.072;2023-05-10T00:52:56;1.20;;;0.88;;
14235;SDS011;7202;50.718;7.072;2023-05-10T00:55:25;1.33;;;1.00;;
14235;SDS011;7202;50.718;7.072;2023-05-10T00:57:54;0.90;;;0.90;;
14235;SDS011;7202;50.718;7.072;2023-05-10T01:00:24;1.02;;;0.90;;
14235;SDS011;7202;50.718;7.072;2023-05-10T01:02:56;1.40;;;1.00;;
14235;SDS011;7202;50.718;7.072;2023-05-10T01:05:25;3.00;;;1.10;;
14235;SDS011;7202;50.718;7.072;2023-05-10T01:07:56;0.70;;;0.70;;
14235;SDS011;7202;50.718;7.072;2023-05-10T01:10:25;2.15;;;0.80;;
14235;SDS011;7202;50.718;7.072;2023-05-10T01:12:53;5.47;;;1.20;;
14235;SDS011;7202;50.718;7.072;2023-05-10T01:15:25;3.00;;;1.10;;
14235;SDS011;7202;50.718;7.072;2023-05-10T01:17:53;2.60;;;1.13;;
14235;SDS011;7202;50.718;7.072;2023-05-10T01:20:23;1.08;;;0.90;;
14235;SDS011;7202;50.718;7.072;2023-05-10T01:29:11;1.52;;;0.77;;
14235;SDS011;7202;50.718;7.072;2023-05-10T01:34:48;2.65;;;1.00;;
14235;SDS011;7202;50.718;7.072;2023-05-10T01:37:25;1.58;;;0.93;;
14235;SDS011;7202;50.718;7.072;2023-05-10T01:40:00;4.13;;;0.95;;
14235;SDS011;7202;50.718;7.072;2023-05-10T01:42:36;1.48;;;1.10;;
14235;SDS011;7202;50.718;7.072;2023-05-10T01:45:11;1.45;;;1.00;;
14235;SDS011;7202;50.718;7.072;2023-05-10T01:47:46;2.15;;;0.90;;
14235;SDS011;7202;50.718;7.072;2023-05-10T01:50:19;1.17;;;1.08;;
14235;SDS011;7202;50.718;7.072;2023-05-10T01:52:52;1.23;;;1.00;;
14235;SDS011;7202;50.718;7.072;2023-05-10T01:55:23;2.45;;;1.20;;
14235;SDS011;7202;50.718;7.072;2023-05-10T01:57:57;4.88;;;2.47;;
14235;SDS011;7202;50.718;7.072;2023-05-10T02:00:29;1.02;;;0.90;;
14235;SDS011;7202;50.718;7.072;2023-05-10T02:03:01;2.75;;;1.33;;
14235;SDS011;7202;50.718;7.072;2023-05-10T02:05:33;2.05;;;1.08;;
14235;SDS011;7202;50.718;7.072;2023-05-10T02:08:05;5.22;;;1.08;;
14235;SDS011;7202;50.718;7.072;2023-05-10T02:10:36;2.35;;;1.27;;
14235;SDS011;7202;50.718;7.072;2023-05-10T02:13:07;2.03;;;1.10;;
14235;SDS011;7202;50.718;7.072;2023-05-10T02:15:37;1.88;;;1.00;;
14235;SDS011;7202;50.718;7.072;2023-05-10T02:18:09;1.88;;;1.00;;
14235;SDS011;7202;50.718;7.072;2023-05-10T02:20:39;1.60;;;1.05;;
14235;SDS011;7202;50.718;7.072;2023-05-10T02:23:08;2.58;;;1.00;;
14235;SDS011;7202;50.718;7.072;2023-05-10T02:25:38;1.10;;;1.00;;
14235;SDS011;7202;50.718;7.072;2023-05-10T02:28:09;2.33;;;0.70;;
14235;SDS011;7202;50.718;7.072;2023-05-10T02:30:39;3.08;;;1.17;;
14235;SDS011;7202;50.718;7.072;2023-05-10T02:33:11;3.42;;;1.10;;
14235;SDS011;7202;50.718;7.072;2023-05-10T02:35:41;1.88;;;1.00;;
14235;SDS011;7202;50.718;7.072;2023-05-10T02:38:10;3.05;;;2.03;;
14235;SDS011;7202;50.718;7.072;2023-05-10T02:40:39;2.70;;;1.05;;
14235;SDS011;7202;50.718;7.072;2023-05-10T02:43:10;1.70;;;1.02;;
14235;SDS011;7202;50.718;7.072;2023-05-10T02:45:42;1.95;;;1.10;;
14235;SDS011;7202;50.718;7.072;2023-05-10T02:48:16;1.90;;;0.90;;
14235;SDS011;7202;50.718;7.072;2023-05-10T02:50:45;1.20;;;1.10;;
14235;SDS011;7202;50.718;7.072;2023-05-10T02:53:18;1.92;;;0.90;;
14235;SDS011;7202;50.718;7.072;2023-05-10T02:55:51;6.18;;;2.30;;
14235;SDS011;7202;50.718;7.072;2023-05-10T02:58:23;2.40;;;1.10;;
14235;SDS011;7202;50.718;7.072;2023-05-10T03:00:52;3.15;;;1.23;;
14235;SDS011;7202;50.718;7.072;2023-05-10T03:03:22;1.48;;;1.20;;
14235;SDS011;7202;50.718;7.072;2023-05-10T03:05:50;1.95;;;1.10;;
14235;SDS011;7202;50.718;7.072;2023-05-10T03:08:20;3.17;;;1.35;;
14235;SDS011;7202;50.718;7.072;2023-05-10T03:10:54;2.53;;;1.15;;
14235;SDS011;7202;50.718;7.072;2023-05-10T03:13:31;5.78;;;1.60;;
14235;SDS011;7202;50.718;7.072;2023-05-10T03:16:05;2.47;;;1.80;;
14235;SDS011;7202;50.718;7.072;2023-05-10T03:18:41;3.58;;;2.03;;
14235;SDS011;7202;50.718;7.072;2023-05-10T03:21:12;8.13;;;2.25;;
14235;SDS011;7202;50.718;7.072;2023-05-10T03:23:44;3.92;;;2.10;;
14235;SDS011;7202;50.718;7.072;2023-05-10T03:26:17;3.80;;;2.08;;
14235;SDS011;7202;50.718;7.072;2023-05-10T03:28:50;3.15;;;2.08;;
14235;SDS011;7202;50.718;7.072;2023-05-10T03:31:19;5.13;;;2.20;;
14235;SDS011;7202;50.718;7.072;2023-05-10T03:33:51;3.30;;;2.60;;
14235;SDS011;7202;50.718;7.072;2023-05-10T03:36:24;3.13;;;2.22;;
14235;SDS011;7202;50.718;7.072;2023-05-10T03:38:54;3.15;;;2.38;;
14235;SDS011;7202;50.718;7.072;2023-05-10T03:41:24;4.93;;;2.63;;
14235;SDS011;7202;50.718;7.072;2023-05-10T03:43:53;3.45;;;2.60;;
14235;SDS011;7202;50.718;7.072;2023-05-10T03:46:22;4.07;;;2.53;;
14235;SDS011;7202;50.718;7.072;2023-05-10T03:48:52;6.40;;;2.88;;
14235;SDS011;7202;50.718;7.072;2023-05-10T03:51:20;5.15;;;2.95;;
14235;SDS011;7202;50.718;7.072;2023-05-10T03:53:49;6.50;;;4.00;;
14235;SDS011;7202;50.718;7.072;2023-05-10T03:56:18;7.85;;;4.70;;
14235;SDS011;7202;50.718;7.072;2023-05-10T03:58:47;7.55;;;5.00;;
14235;SDS011;7202;50.718;7.072;2023-05-10T04:01:17;8.20;;;5.45;;
14235;SDS011;7202;50.718;7.072;2023-05-10T04:03:46;9.90;;;6.10;;
14235;SDS011;7202;50.718;7.072;2023-05-10T04:06:16;7.40;;;5.25;;
14235;SDS011;7202;50.718;7.072;2023-05-10T04:08:45;9.95;;;5.82;;
14235;SDS011;7202;50.718;7.072;2023-05-10T04:11:13;11.35;;;5.68;;
14235;SDS011;7202;50.718;7.072;2023-05-10T04:13:42;8.55;;;6.05;;
14235;SDS011;7202;50.718;7.072;2023-05-10T04:16:10;10.95;;;6.30;;
14235;SDS011;7202;50.718;7.072;2023-05-10T04:18:39;13.52;;;6.43;;
14235;SDS011;7202;50.718;7.072;2023-05-10T04:21:11;10.98;;;6.78;;
14235;SDS011;7202;50.718;7.072;2023-05-10T04:23:41;9.50;;;6.78;;
14235;SDS011;7202;50.718;7.072;2023-05-10T04:26:10;12.38;;;7.32;;
14235;SDS011;7202;50.718;7.072;2023-05-10T04:28:39;11.75;;;8.27;;
14235;SDS011;7202;50.718;7.072;2023-05-10T04:31:08;9.15;;;7.30;;
14235;SDS011;7202;50.718;7.072;2023-05-10T04:33:37;12.60;;;8.75;;
14235;SDS011;7202;50.718;7.072;2023-05-10T04:36:06;11.15;;;8.13;;
14235;SDS011;7202;50.718;7.072;2023-05-10T04:38:35;11.63;;;7.93;;
14235;SDS011;7202;50.718;7.072;2023-05-10T04:41:05;11.70;;;8.32;;
14235;SDS011;7202;50.718;7.072;2023-05-10T04:43:34;13.18;;;7.72;;
14235;SDS011;7202;50.718;7.072;2023-05-10T04:46:04;12.60;;;8.55;;
14235;SDS011;7202;50.718;7.072;2023-05-10T04:48:33;15.82;;;9.13;;
14235;SDS011;7202;50.718;7.072;2023-05-10T04:51:02;19.33;;;9.60;;
14235;SDS011;7202;50.718;7.072;2023-05-10T04:53:31;12.65;;;9.45;;
14235;SDS011;7202;50.718;7.072;2023-05-10T04:56:00;11.85;;;9.00;;
14235;SDS011;7202;50.718;7.072;2023-05-10T04:58:30;14.10;;;9.02;;
14235;SDS011;7202;50.718;7.072;2023-05-10T05:01:04;12.23;;;8.90;;
14235;SDS011;7202;50.718;7.072;2023-05-10T05:03:33;13.05;;;9.48;;
14235;SDS011;7202;50.718;7.072;2023-05-10T05:06:02;13.02;;;9.45;;
14235;SDS011;7202;50.718;7.072;2023-05-10T05:08:31;14.70;;;9.43;;
14235;SDS011;7202;50.718;7.072;2023-05-10T05:11:00;15.82;;;9.43;;
14235;SDS011;7202;50.718;7.072;2023-05-10T05:13:28;12.85;;;8.82;;
14235;SDS011;7202;50.718;7.072;2023-05-10T05:16:00;11.90;;;9.07;;
14235;SDS011;7202;50.718;7.072;2023-05-10T05:18:29;13.02;;;8.35;;
14235;SDS011;7202;50.718;7.072;2023-05-10T05:20:57;15.88;;;8.93;;
14235;SDS011;7202;50.718;7.072;2023-05-10T05:23:26;13.02;;;8.15;;
14235;SDS011;7202;50.718;7.072;2023-05-10T05:25:54;11.25;;;7.78;;
14235;SDS011;7202;50.718;7.072;2023-05-10T05:28:23;13.70;;;8.15;;
14235;SDS011;7202;50.718;7.072;2023-05-10T05:30:53;11.35;;;7.72;;
14235;SDS011;7202;50.718;7.072;2023-05-10T05:33:21;10.10;;;8.10;;
14235;SDS011;7202;50.718;7.072;2023-05-10T05:35:50;11.00;;;7.82;;
14235;SDS011;7202;50.718;7.072;2023-05-10T05:38:19;12.27;;;7.80;;
14235;SDS011;7202;50.718;7.072;2023-05-10T05:40:47;12.45;;;7.47;;
14235;SDS011;7202;50.718;7.072;2023-05-10T05:43:16;9.98;;;7.35;;
14235;SDS011;7202;50.718;7.072;2023-05-10T05:45:44;10.55;;;7.15;;
14235;SDS011;7202;50.718;7.072;2023-05-10T05:48:14;8.15;;;6.07;;
14235;SDS011;7202;50.718;7.072;2023-05-10T05:50:43;8.38;;;6.43;;
14235;SDS011;7202;50.718;7.072;2023-05-10T05:53:12;10.05;;;6.72;;
14235;SDS011;7202;50.718;7.072;2023-05-10T05:55:50;8.90;;;6.70;;
14235;SDS011;7202;50.718;7.072;2023-05-10T05:58:19;9.05;;;7.07;;
14235;SDS011;7202;50.718;7.072;2023-05-10T06:00:48;13.98;;;7.45;;
14235;SDS011;7202;50.718;7.072;2023-05-10T06:03:20;9.77;;;7.10;;
14235;SDS011;7202;50.718;7.072;2023-05-10T06:05:49;8.00;;;6.53;;
14235;SDS011;7202;50.718;7.072;2023-05-10T06:08:17;9.63;;;6.90;;
14235;SDS011;7202;50.718;7.072;2023-05-10T06:10:46;10.82;;;6.72;;
14235;SDS011;7202;50.718;7.072;2023-05-10T06:13:14;11.23;;;6.63;;
14235;SDS011;7202;50.718;7.072;2023-05-10T06:15:43;10.35;;;6.30;;
14235;SDS011;7202;50.718;7.072;2023-05-10T06:18:12;9.05;;;6.00;;
14235;SDS011;7202;50.718;7.072;2023-05-10T06:20:42;9.40;;;6.25;;
14235;SDS011;7202;50.718;7.072;2023-05-10T06:23:10;10.23;;;6.55;;
14235;SDS011;7202;50.718;7.072;2023-05-10T06:25:39;14.35;;;6.30;;
14235;SDS011;7202;50.718;7.072;2023-05-10T06:28:07;11.63;;;7.22;;
14235;SDS011;7202;50.718;7.072;2023-05-10T06:30:36;8.13;;;6.28;;
14235;SDS011;7202;50.718;7.072;2023-05-10T06:33:05;8.35;;;6.05;;
14235;SDS011;7202;50.718;7.072;2023-05-10T06:35:33;8.63;;;6.25;;
14235;SDS011;7202;50.718;7.072;2023-05-10T06:38:05;8.45;;;5.90;;
14235;SDS011;7202;50.718;7.072;2023-05-10T06:40:33;6.53;;;4.90;;
14235;SDS011;7202;50.718;7.072;2023-05-10T06:43:02;7.35;;;4.97;;
14235;SDS011;7202;50.718;7.072;2023-05-10T06:45:31;7.70;;;5.28;;
14235;SDS011;7202;50.718;7.072;2023-05-10T06:48:00;6.50;;;5.18;;
14235;SDS011;7202;50.718;7.072;2023-05-10T06:50:28;7.30;;;5.55;;
14235;SDS011;7202;50.718;7.072;2023-05-10T06:52:57;7.68;;;5.25;;
14235;SDS011;7202;50.718;7.072;2023-05-10T06:55:27;7.72;;;5.60;;
14235;SDS011;7202;50.718;7.072;2023-05-10T06:57:56;7.20;;;5.60;;
14235;SDS011;7202;50.718;7.072;2023-05-10T07:00:24;6.40;;;5.05;;
14235;SDS011;7202;50.718;7.072;2023-05-10T07:02:53;11.95;;;5.60;;
14235;SDS011;7202;50.718;7.072;2023-05-10T07:05:23;7.22;;;5.63;;
14235;SDS011;7202;50.718;7.072;2023-05-10T07:07:51;8.63;;;5.70;;
14235;SDS011;7202;50.718;7.072;2023-05-10T07:10:20;7.45;;;5.43;;
14235;SDS011;7202;50.718;7.072;2023-05-10T07:12:50;8.65;;;4.88;;
14235;SDS011;7202;50.718;7.072;2023-05-10T07:15:19;9.23;;;5.32;;
14235;SDS011;7202;50.718;7.072;2023-05-10T07:17:47;10.23;;;5.30;;
14235;SDS011;7202;50.718;7.072;2023-05-10T07:20:16;9.13;;;5.43;;
14235;SDS011;7202;50.718;7.072;2023-05-10T07:22:45;9.57;;;5.07;;
14235;SDS011;7202;50.718;7.072;2023-05-10T07:25:14;9.15;;;4.80;;
14235;SDS011;7202;50.718;7.072;2023-05-10T07:27:42;6.40;;;4.82;;
14235;SDS011;7202;50.718;7.072;2023-05-10T07:30:13;6.10;;;4.80;;
14235;SDS011;7202;50.718;7.072;2023-05-10T07:32:42;8.60;;;5.03;;
14235;SDS011;7202;50.718;7.072;2023-05-10T07:35:11;6.05;;;5.03;;
14235;SDS011;7202;50.718;7.072;2023-05-10T07:37:40;5.70;;;4.95;;
14235;SDS011;7202;50.718;7.072;2023-05-10T07:40:09;5.82;;;5.00;;
14235;SDS011;7202;50.718;7.072;2023-05-10T07:42:37;7.85;;;5.05;;
14235;SDS011;7202;50.718;7.072;2023-05-10T07:45:06;6.63;;;4.93;;
14235;SDS011;7202;50.718;7.072;2023-05-10T07:47:37;7.22;;;4.75;;
14235;SDS011;7202;50.718;7.072;2023-05-10T07:50:06;5.03;;;4.53;;
14235;SDS011;7202;50.718;7.072;2023-05-10T07:52:35;6.72;;;4.38;;
14235;SDS011;7202;50.718;7.072;2023-05-10T07:55:04;6.75;;;4.30;;
14235;SDS011;7202;50.718;7.072;2023-05-10T07:57:34;8.90;;;4.45;;
14235;SDS011;7202;50.718;7.072;2023-05-10T08:00:03;6.90;;;4.18;;
14235;SDS011;7202;50.718;7.072;2023-05-10T08:02:40;8.30;;;4.15;;
14235;SDS011;7202;50.718;7.072;2023-05-10T08:05:09;5.85;;;4.15;;
14235;SDS011;7202;50.718;7.072;2023-05-10T08:07:37;6.57;;;3.90;;
14235;SDS011;7202;50.718;7.072;2023-05-10T08:10:07;6.65;;;4.25;;
14235;SDS011;7202;50.718;7.072;2023-05-10T08:12:38;3.95;;;3.08;;
14235;SDS011;7202;50.718;7.072;2023-05-10T08:15:07;3.90;;;3.35;;
14235;SDS011;7202;50.718;7.072;2023-05-10T08:17:37;4.15;;;3.25;;
14235;SDS011;7202;50.718;7.072;2023-05-10T08:20:08;4.03;;;3.30;;
14235;SDS011;7202;50.718;7.072;2023-05-10T08:22:36;3.72;;;3.17;;
14235;SDS011;7202;50.718;7.072;2023-05-10T08:25:05;4.03;;;2.92;;
14235;SDS011;7202;50.718;7.072;2023-05-10T08:27:34;4.88;;;3.03;;
14235;SDS011;7202;50.718;7.072;2023-05-10T08:30:03;5.70;;;2.83;;
14235;SDS011;7202;50.718;7.072;2023-05-10T08:32:33;3.67;;;2.63;;
14235;SDS011;7202;50.718;7.072;2023-05-10T08:35:01;2.75;;;2.45;;
14235;SDS011;7202;50.718;7.072;2023-05-10T08:37:31;6.10;;;2.88;;
14235;SDS011;7202;50.718;7.072;2023-05-10T08:40:00;5.07;;;2.80;;
14235;SDS011;7202;50.718;7.072;2023-05-10T08:42:30;4.38;;;2.80;;
14235;SDS011;7202;50.718;7.072;2023-05-10T08:44:59;3.75;;;2.78;;
14235;SDS011;7202;50.718;7.072;2023-05-10T08:47:28;4.05;;;2.72;;
14235;SDS011;7202;50.718;7.072;2023-05-10T08:49:57;5.82;;;2.40;;
14235;SDS011;7202;50.718;7.072;2023-05-10T08:52:27;4.85;;;2.50;;
14235;SDS011;7202;50.718;7.072;2023-05-10T08:54:59;10.30;;;2.10;;
14235;SDS011;7202;50.718;7.072;2023-05-10T08:57:27;4.72;;;2.03;;
14235;SDS011;7202;50.718;7.072;2023-05-10T08:59:56;8.30;;;2.17;;
14235;SDS011;7202;50.718;7.072;2023-05-10T09:02:25;4.10;;;1.60;;
14235;SDS011;7202;50.718;7.072;2023-05-10T09:04:54;5.07;;;1.60;;
14235;SDS011;7202;50.718;7.072;2023-05-10T09:07:23;2.72;;;1.25;;
14235;SDS011;7202;50.718;7.072;2023-05-10T09:09:51;2.35;;;1.20;;
14235;SDS011;7202;50.718;7.072;2023-05-10T09:12:22;2.88;;;1.20;;
14235;SDS011;7202;50.718;7.072;2023-05-10T09:14:51;1.45;;;1.20;;
14235;SDS011;7202;50.718;7.072;2023-05-10T09:17:22;1.48;;;1.08;;
14235;SDS011;7202;50.718;7.072;2023-05-10T09:19:57;2.80;;;0.98;;
14235;SDS011;7202;50.718;7.072;2023-05-10T09:22:26;2.85;;;1.25;;
14235;SDS011;7202;50.718;7.072;2023-05-10T09:25:05;1.50;;;1.10;;
14235;SDS011;7202;50.718;7.072;2023-05-10T09:27:35;3.22;;;0.98;;
14235;SDS011;7202;50.718;7.072;2023-05-10T09:30:05;3.65;;;1.10;;
14235;SDS011;7202;50.718;7.072;2023-05-10T09:32:35;1.35;;;1.25;;
14235;SDS011;7202;50.718;7.072;2023-05-10T09:35:06;3.50;;;1.15;;
14235;SDS011;7202;50.718;7.072;2023-05-10T09:37:35;5.47;;;1.10;;
14235;SDS011;7202;50.718;7.072;2023-05-10T09:40:04;1.13;;;1.02;;
14235;SDS011;7202;50.718;7.072;2023-05-10T09:42:35;1.48;;;1.10;;
14235;SDS011;7202;50.718;7.072;2023-05-10T09:45:04;3.63;;;0.98;;
14235;SDS011;7202;50.718;7.072;2023-05-10T09:47:34;1.70;;;1.40;;
14235;SDS011;7202;50.718;7.072;2023-05-10T09:50:04;1.10;;;1.00;;
14235;SDS011;7202;50.718;7.072;2023-05-10T09:52:45;1.13;;;0.90;;
14235;SDS011;7202;50.718;7.072;2023-05-10T09:55:15;2.35;;;1.30;;
14235;SDS011;7202;50.718;7.072;2023-05-10T09:57:46;1.73;;;1.25;;
14235;SDS011;7202;50.718;7.072;2023-05-10T10:00:19;1.35;;;1.17;;
14235;SDS011;7202;50.718;7.072;2023-05-10T10:02:53;1.20;;;1.00;;
14235;SDS011;7202;50.718;7.072;2023-05-10T10:05:27;1.30;;;1.20;;
14235;SDS011;7202;50.718;7.072;2023-05-10T10:07:56;1.27;;;1.17;;
14235;SDS011;7202;50.718;7.072;2023-05-10T10:10:26;1.30;;;1.20;;
14235;SDS011;7202;50.718;7.072;2023-05-10T10:12:56;5.50;;;1.65;;
14235;SDS011;7202;50.718;7.072;2023-05-10T10:15:26;1.75;;;1.50;;
14235;SDS011;7202;50.718;7.072;2023-05-10T10:17:55;1.98;;;1.80;;
14235;SDS011;7202;50.718;7.072;2023-05-10T10:20:23;2.83;;;2.40;;
14235;SDS011;7202;50.718;7.072;2023-05-10T10:22:53;2.53;;;2.33;;
14235;SDS011;7202;50.718;7.072;2023-05-10T10:25:22;3.75;;;2.85;;
14235;SDS011;7202;50.718;7.072;2023-05-10T10:27:57;2.55;;;1.60;;
14235;SDS011;7202;50.718;7.072;2023-05-10T10:30:35;2.30;;;2.10;;
14235;SDS011;7202;50.718;7.072;2023-05-10T10:33:13;1.67;;;1.50;;
14235;SDS011;7202;50.718;7.072;2023-05-10T10:35:58;1.75;;;1.40;;
14235;SDS011;7202;50.718;7.072;2023-05-10T10:41:29;4.97;;;3.30;;
14235;SDS011;7202;50.718;7.072;2023-05-10T10:47:05;4.50;;;2.85;;
14235;SDS011;7202;50.718;7.072;2023-05-10T10:49:38;3.88;;;2.67;;
14235;SDS011;7202;50.718;7.072;2023-05-10T10:52:21;5.20;;;2.60;;
14235;SDS011;7202;50.718;7.072;2023-05-10T10:54:58;2.72;;;2.45;;
14235;SDS011;7202;50.718;7.072;2023-05-10T10:57:30;3.60;;;1.65;;
14235;SDS011;7202;50.718;7.072;2023-05-10T11:02:50;1.42;;;1.00;;
14235;SDS011;7202;50.718;7.072;2023-05-10T11:08:11;1.25;;;1.10;;
14235;SDS011;7202;50.718;7.072;2023-05-10T11:10:54;1.23;;;1.13;;
14235;SDS011;7202;50.718;7.072;2023-05-10T11:13:33;2.60;;;1.00;;
14235;SDS011;7202;50.718;7.072;2023-05-10T11:16:16;1.00;;;0.75;;
14235;SDS011;7202;50.718;7.072;2023-05-10T11:18:52;1.30;;;0.85;;
14235;SDS011;7202;50.718;7.072;2023-05-10T11:21:24;0.70;;;0.70;;
14235;SDS011;7202;50.718;7.072;2023-05-10T11:23:53;4.07;;;0.70;;
14235;SDS011;7202;50.718;7.072;2023-05-10T11:26:24;0.82;;;0.70;;
14235;SDS011;7202;50.718;7.072;2023-05-10T11:28:53;0.95;;;0.77;;
14235;SDS011;7202;50.718;7.072;2023-05-10T11:31:27;0.82;;;0.82;;
14235;SDS011;7202;50.718;7.072;2023-05-10T11:33:57;1.48;;;0.88;;
14235;SDS011;7202;50.718;7.072;2023-05-10T11:36:29;1.80;;;1.02;;
14235;SDS011;7202;50.718;7.072;2023-05-10T11:39:01;1.00;;;0.90;;
14235;SDS011;7202;50.718;7.072;2023-05-10T11:41:31;0.70;;;0.70;;
14235;SDS011;7202;50.718;7.072;2023-05-10T11:44:00;0.80;;;0.80;;
14235;SDS011;7202;50.718;7.072;2023-05-10T11:46:30;1.05;;;0.90;;
14235;SDS011;7202;50.718;7.072;2023-05-10T11:49:00;0.90;;;0.90;;
14235;SDS011;7202;50.718;7.072;2023-05-10T11:51:32;1.10;;;1.00;;
14235;SDS011;7202;50.718;7.072;2023-05-10T11:54:05;1.90;;;0.80;;
14235;SDS011;7202;50.718;7.072;2023-05-10T11:56:35;1.73;;;1.00;;
14235;SDS011;7202;50.718;7.072;2023-05-10T11:59:04;1.23;;;0.73;;
14235;SDS011;7202;50.718;7.072;2023-05-10T12:01:34;0.90;;;0.90;;
14235;SDS011;7202;50.718;7.072;2023-05-10T12:04:03;1.05;;;1.00;;
14235;SDS011;7202;50.718;7.072;2023-05-10T12:06:32;1.17;;;1.08;;
14235;SDS011;7202;50.718;7.072;2023-05-10T12:09:07;1.38;;;1.27;;
14235;SDS011;7202;50.718;7.072;2023-05-10T12:11:37;1.20;;;1.10;;
14235;SDS011;7202;50.718;7.072;2023-05-10T12:14:10;2.03;;;1.55;;
14235;SDS011;7202;50.718;7.072;2023-05-10T12:16:40;1.50;;;1.40;;
14235;SDS011;7202;50.718;7.072;2023-05-10T12:19:11;1.48;;;1.38;;
14235;SDS011;7202;50.718;7.072;2023-05-10T12:21:40;1.88;;;1.42;;
14235;SDS011;7202;50.718;7.072;2023-05-10T12:24:08;1.40;;;1.30;;
14235;SDS011;7202;50.718;7.072;2023-05-10T12:26:37;1.17;;;1.08;;
14235;SDS011;7202;50.718;7.072;2023-05-10T12:29:12;0.90;;;0.88;;
14235;SDS011;7202;50.718;7.072;2023-05-10T12:31:50;0.57;;;0.50;;
14235;SDS011;7202;50.718;7.072;2023-05-10T12:34:23;1.05;;;0.80;;
14235;SDS011;7202;50.718;7.072;2023-05-10T12:36:58;1.40;;;1.00;;
14235;SDS011;7202;50.718;7.072;2023-05-10T12:39:37;0.73;;;0.73;;
14235;SDS011;7202;50.718;7.072;2023-05-10T12:42:08;0.93;;;0.93;;
14235;SDS011;7202;50.718;7.072;2023-05-10T12:44:37;2.15;;;0.90;;
14235;SDS011;7202;50.718;7.072;2023-05-10T12:47:08;0.98;;;0.90;;
14235;SDS011;7202;50.718;7.072;2023-05-10T12:49:37;0.77;;;0.77;;
14235;SDS011;7202;50.718;7.072;2023-05-10T12:52:06;1.52;;;0.98;;
14235;SDS011;7202;50.718;7.072;2023-05-10T12:54:34;0.93;;;0.90;;
14235;SDS011;7202;50.718;7.072;2023-05-10T12:57:03;1.25;;;1.10;;
14235;SDS011;7202;50.718;7.072;2023-05-10T12:59:31;0.90;;;0.90;;
14235;SDS011;7202;50.718;7.072;2023-05-10T13:02:04;1.48;;;1.08;;
14235;SDS011;7202;50.718;7.072;2023-05-10T13:04:34;1.58;;;0.90;;
14235;SDS011;7202;50.718;7.072;2023-05-10T13:07:04;2.00;;;0.70;;
14235;SDS011;7202;50.718;7.072;2023-05-10T13:09:33;0.80;;;0.80;;
14235;SDS011;7202;50.718;7.072;2023-05-10T13:12:02;1.35;;;0.93;;
14235;SDS011;7202;50.718;7.072;2023-05-10T13:14:32;1.23;;;1.00;;
14235;SDS011;7202;50.718;7.072;2023-05-10T13:17:00;0.93;;;0.70;;
14235;SDS011;7202;50.718;7.072;2023-05-10T13:19:29;1.52;;;1.00;;
14235;SDS011;7202;50.718;7.072;2023-05-10T13:21:59;0.90;;;0.60;;
14235;SDS011;7202;50.718;7.072;2023-05-10T13:24:27;1.00;;;0.80;;
14235;SDS011;7202;50.718;7.072;2023-05-10T13:26:56;0.90;;;0.70;;
14235;SDS011;7202;50.718;7.072;2023-05-10T13:29:25;0.60;;;0.60;;
14235;SDS011;7202;50.718;7.072;2023-05-10T13:31:54;1.17;;;0.60;;
14235;SDS011;7202;50.718;7.072;2023-05-10T13:34:23;2.75;;;0.70;;
14235;SDS011;7202;50.718;7.072;2023-05-10T13:36:52;0.93;;;0.60;;
14235;SDS011;7202;50.718;7.072;2023-05-10T13:39:23;2.25;;;0.73;;
14235;SDS011;7202;50.718;7.072;2023-05-10T13:41:52;1.42;;;0.70;;
14235;SDS011;7202;50.718;7.072;2023-05-10T13:44:21;0.77;;;0.77;;
14235;SDS011;7202;50.718;7.072;2023-05-10T13:46:50;1.48;;;1.00;;
14235;SDS011;7202;50.718;7.072;2023-05-10T13:49:19;1.60;;;1.15;;
14235;SDS011;7202;50.718;7.072;2023-05-10T13:51:48;1.20;;;1.05;;
14235;SDS011;7202;50.718;7.072;2023-05-10T13:54:17;4.28;;;1.20;;
14235;SDS011;7202;50.718;7.072;2023-05-10T13:56:47;1.50;;;1.20;;
14235;SDS011;7202;50.718;7.072;2023-05-10T13:59:16;2.35;;;1.20;;
14235;SDS011;7202;50.718;7.072;2023-05-10T14:01:45;1.63;;;1.35;;
14235;SDS011;7202;50.718;7.072;2023-05-10T14:04:14;1.15;;;1.00;;
14235;SDS011;7202;50.718;7.072;2023-05-10T14:06:42;4.45;;;1.20;;
14235;SDS011;7202;50.718;7.072;2023-05-10T14:09:11;1.83;;;1.10;;
14235;SDS011;7202;50.718;7.072;2023-05-10T14:11:40;2.15;;;1.25;;
14235;SDS011;7202;50.718;7.072;2023-05-10T14:14:11;1.40;;;1.27;;
14235;SDS011;7202;50.718;7.072;2023-05-10T14:16:41;3.20;;;1.20;;
14235;SDS011;7202;50.718;7.072;2023-05-10T14:19:11;1.60;;;1.10;;
14235;SDS011;7202;50.718;7.072;2023-05-10T14:21:39;2.92;;;1.00;;
14235;SDS011;7202;50.718;7.072;2023-05-10T14:24:08;1.50;;;1.20;;
14235;SDS011;7202;50.718;7.072;2023-05-10T14:26:37;2.35;;;1.15;;
14235;SDS011;7202;50.718;7.072;2023-05-10T14:29:05;2.90;;;1.30;;
14235;SDS011;7202;50.718;7.072;2023-05-10T14:31:38;3.17;;;1.63;;
14235;SDS011;7202;50.718;7.072;2023-05-10T14:34:07;2.47;;;1.52;;
14235;SDS011;7202;50.718;7.072;2023-05-10T14:36:36;2.03;;;1.35;;
14235;SDS011;7202;50.718;7.072;2023-05-10T14:39:05;8.32;;;1.80;;
14235;SDS011;7202;50.718;7.072;2023-05-10T14:41:34;2.28;;;1.65;;
14235;SDS011;7202;50.718;7.072;2023-05-10T14:44:03;3.45;;;2.17;;
14235;SDS011;7202;50.718;7.072;2023-05-10T14:46:32;4.68;;;2.40;;
14235;SDS011;7202;50.718;7.072;2023-05-10T14:49:02;8.45;;;2.85;;
14235;SDS011;7202;50.718;7.072;2023-05-10T14:51:31;10.82;;;2.63;;
14235;SDS011;7202;50.718;7.072;2023-05-10T14:54:00;6.57;;;2.90;;
14235;SDS011;7202;50.718;7.072;2023-05-10T14:56:29;7.03;;;3.00;;
14235;SDS011;7202;50.718;7.072;2023-05-10T14:58:57;7.30;;;2.80;;
14235;SDS011;7202;50.718;7.072;2023-05-10T15:01:27;8.07;;;3.03;;
14235;SDS011;7202;50.718;7.072;2023-05-10T15:03:56;10.50;;;2.95;;
14235;SDS011;7202;50.718;7.072;2023-05-10T15:06:31;5.88;;;2.42;;
14235;SDS011;7202;50.718;7.072;2023-05-10T15:09:00;5.63;;;2.40;;
14235;SDS011;7202;50.718;7.072;2023-05-10T15:11:30;4.50;;;2.72;;
14235;SDS011;7202;50.718;7.072;2023-05-10T15:13:59;6.40;;;3.13;;
14235;SDS011;7202;50.718;7.072;2023-05-10T15:16:28;5.57;;;2.72;;
14235;SDS011;7202;50.718;7.072;2023-05-10T15:19:00;3.85;;;2.67;;
14235;SDS011;7202;50.718;7.072;2023-05-10T15:21:31;5.75;;;2.53;;
14235;SDS011;7202;50.718;7.072;2023-05-10T15:24:05;5.03;;;2.53;;
14235;SDS011;7202;50.718;7.072;2023-05-10T15:26:34;6.22;;;2.50;;
14235;SDS011;7202;50.718;7.072;2023-05-10T15:29:03;6.22;;;2.70;;
14235;SDS011;7202;50.718;7.072;2023-05-10T15:31:31;4.22;;;2.60;;
14235;SDS011;7202;50.718;7.072;2023-05-10T15:34:02;3.00;;;2.38;;
14235;SDS011;7202;50.718;7.072;2023-05-10T15:36:32;4.30;;;2.80;;
14235;SDS011;7202;50.718;7.072;2023-05-10T15:39:00;5.40;;;2.58;;